utilisation pie
utilisation bar
humidity graph
temperature graph
Station id: aae83c for 2 days

start:   stop:  

day time in temp out temp in RH out RH H quota rule action
2020-08-02 00:03:33 23.7 15.7 49 74 95 H 0
2020-08-02 00:33:43 22.5 15.6 52 77 100 H 0
2020-08-02 01:03:44 24.6 15.5 46 79 101 H 0
2020-08-02 01:33:45 23.4 15.3 49 82 105 H 0
2020-08-02 02:03:47 22.1 15.2 52 85 107 H 0
2020-08-02 02:33:48 24.1 14.9 47 87 108 H 0
2020-08-02 03:03:49 23.0 14.9 50 90 113 H 0
2020-08-02 03:33:50 21.8 14.9 53 90 114 H 0
2020-08-02 04:03:51 23.8 14.8 48 91 113 H 0
2020-08-02 04:33:52 22.6 14.2 50 95 116 H 0
2020-08-02 05:03:53 21.4 14.5 53 96 120 H 0
2020-08-02 05:33:54 23.5 14.9 48 97 123 H 0
2020-08-02 06:03:56 22.1 16.1 51 93 128 H 0
2020-08-02 06:33:57 21.1 16.2 54 93 130 H 0
2020-08-02 07:03:58 23.5 16.1 47 94 128 H 0
2020-08-02 07:33:59 21.7 17.9 52 85 132 H 0
2020-08-02 08:04:00 21.2 19.2 54 79 131 H 0
2020-08-02 08:34:01 23.4 20.3 47 75 132 H 0
2020-08-02 09:04:02 21.7 22.9 52 65 133 H 0
2020-08-02 09:34:03 21.5 23.6 53 63 135 H 0
2020-08-02 10:04:05 23.1 22.5 48 64 128 H 0
2020-08-02 10:34:06 21.7 23.0 52 62 127 H 0
2020-08-02 11:04:07 22.9 24.0 49 57 123 H 0
2020-08-02 11:34:08 23.2 23.9 48 55 119 H 0
2020-08-02 12:04:09 22.0 24.3 52 57 126 H 0
2020-08-02 12:34:10 23.9 24.7 47 49 109 H 0
2020-08-02 13:04:11 23.6 26.1 48 37 89 G 0
2020-08-02 13:34:12 22.5 25.0 51 33 75 T
1
2020-08-02 14:04:14 24.6 24.2 46 37 80 G 0
2020-08-02 14:34:15 24.3 24.0 46 40 84 G 0
2020-08-02 15:04:16 23.0 23.9 50 45 95 H 0
2020-08-02 15:34:17 24.7 23.3 43 51 108 H 0
2020-08-02 16:04:18 27.1 23.2 40 51 100 H 0
2020-08-02 16:34:19 27.3 22.2 41 56 103 H 0
2020-08-02 17:04:20 26.7 23.1 44 54 100 H 0
2020-08-02 17:34:21 27.6 21.7 42 60 102 H 0
2020-08-02 18:04:22 29.1 21.1 38 59 98 I
1
2020-08-02 18:34:24 30.3 19.7 36 70 105 I
1
2020-08-02 19:04:25 29.6 18.8 38 78 111 I
1
2020-08-02 19:34:26 28.1 19.2 42 75 109 I
1
2020-08-02 20:04:27 28.2 18.9 41 79 112 I
1
2020-08-02 20:34:28 29.9 18.5 38 82 114 I
1
2020-08-02 21:04:29 30.5 18.0 36 86 117 I
1
2020-08-02 21:34:30 30.7 17.5 36 90 119 I
1
2020-08-02 22:04:32 28.1 18.1 41 90 124 I
1
2020-08-02 22:34:33 26.9 18.2 45 90 123 H 0
2020-08-02 23:04:34 27.9 18.5 42 87 121 H 0
2020-08-02 23:34:35 29.1 18.2 39 87 119 I
1
2020-08-03 00:04:36 28.0 18.1 41 89 122 H 0
2020-08-03 00:34:37 26.2 18.0 46 89 122 H 0
2020-08-03 01:04:38 26.5 17.8 45 84 114 H 0
2020-08-03 01:34:39 28.2 17.0 41 85 111 I
1
2020-08-03 02:04:41 27.0 16.2 43 87 108 H 0
2020-08-03 02:34:42 25.3 16.1 47 85 105 H 0
2020-08-03 03:04:43 26.3 15.7 45 86 104 H 0
2020-08-03 03:34:44 27.7 15.7 41 86 105 H 0
2020-08-03 04:04:45 25.6 15.1 45 89 106 H 0
2020-08-03 04:34:46 24.4 14.9 48 89 106 H 0
2020-08-03 05:04:47 26.4 15.5 43 90 110 H 0
2020-08-03 05:34:48 26.1 15.7 43 86 109 H 0
2020-08-03 06:04:50 24.2 16.6 48 82 109 H 0
2020-08-03 06:34:51 25.0 16.8 46 78 105 H 0
2020-08-03 07:04:52 26.7 17.2 42 76 106 H 0
2020-08-03 07:34:53 24.7 16.8 46 71 98 H 0
2020-08-03 08:04:54 23.6 17.3 49 71 101 H 0
2020-08-03 08:34:55 25.8 17.0 43 70 98 H 0
2020-08-03 09:04:56 25.2 18.5 44 65 99 H 0
2020-08-03 09:34:57 23.6 17.6 48 65 95 H 0
2020-08-03 10:04:59 24.5 18.2 42 63 104 H 0
2020-08-03 10:35:00 25.9 19.6 40 61 106 H 0
2020-08-03 11:05:01 24.0 18.2 45 62 99 H 0
2020-08-03 11:35:02 23.4 18.4 47 60 96 H 0
2020-08-03 12:05:03 25.9 18.8 41 60 97 H 0
2020-08-03 12:35:04 24.6 19.3 44 57 96 H 0


2020-08-03 13:46:16 CEST